Wetterdaten: Woche 06.07.09 - 12.07.09 (KW28)
Datum Zeit Temperatur Luftfeuchte Luftdruck Niederschlag Windrichtung Wind
06.07.2009 00:00 17,8 C 88 % 1008,1 hPa 0,2 l/m S 7,2 km/h (2 Bft)
06.07.2009 01:00 17,0 C 88 % 1008,0 hPa 0,0 l/m S-SO 4,1 km/h (1 Bft)
06.07.2009 02:00 16,8 C 91 % 1007,8 hPa 0,2 l/m W 14,7 km/h (3 Bft)
06.07.2009 03:00 17,0 C 92 % 1007,8 hPa 0,0 l/m SW 15,7 km/h (3 Bft)
06.07.2009 04:00 16,5 C 93 % 1007,8 hPa 0,0 l/m SW 4,1 km/h (1 Bft)
06.07.2009 05:00 16,1 C 95 % 1008,0 hPa 0,8 l/m SW 4,3 km/h (1 Bft)
06.07.2009 06:00 15,9 C 97 % 1007,9 hPa 0,4 l/m SW 3,9 km/h (1 Bft)
06.07.2009 07:00 16,0 C 96 % 1008,1 hPa 0,0 l/m W-SW 5,2 km/h (1 Bft)
06.07.2009 08:00 16,3 C 96 % 1008,8 hPa 0,2 l/m SW 5,9 km/h (2 Bft)
06.07.2009 09:00 16,9 C 95 % 1008,9 hPa 0,0 l/m SW 8,6 km/h (2 Bft)
06.07.2009 10:00 17,7 C 93 % 1008,9 hPa 0,0 l/m W-SW 8,9 km/h (2 Bft)
06.07.2009 11:00 19,5 C 85 % 1009,0 hPa 0,0 l/m W-SW 13,8 km/h (3 Bft)
06.07.2009 12:00 21,4 C 73 % 1008,7 hPa 0,0 l/m SW 16,1 km/h (3 Bft)
06.07.2009 13:00 18,9 C 85 % 1008,9 hPa 13,6 l/m W 15,1 km/h (3 Bft)
06.07.2009 14:00 19,5 C 87 % 1008,6 hPa 0,0 l/m SW 14,5 km/h (3 Bft)
06.07.2009 15:00 20,3 C 83 % 1008,3 hPa 0,0 l/m SW 14,1 km/h (3 Bft)
06.07.2009 16:00 19,3 C 85 % 1008,1 hPa 0,0 l/m W-SW 13,6 km/h (3 Bft)
06.07.2009 17:00 19,2 C 78 % 1007,8 hPa 0,0 l/m W-SW 20,9 km/h (4 Bft)
06.07.2009 18:00 20,7 C 74 % 1007,3 hPa 0,0 l/m W-SW 14,4 km/h (3 Bft)
06.07.2009 19:00 20,9 C 75 % 1007,3 hPa 0,0 l/m SW 10,5 km/h (2 Bft)
06.07.2009 20:00 19,3 C 81 % 1007,4 hPa 0,0 l/m SW 4,5 km/h (1 Bft)
06.07.2009 21:00 17,5 C 88 % 1007,3 hPa 0,0 l/m W-SW 3,6 km/h (1 Bft)
06.07.2009 22:00 16,3 C 90 % 1008,0 hPa 0,0 l/m W 5,1 km/h (1 Bft)
06.07.2009 23:00 16,0 C 85 % 1008,4 hPa 0,0 l/m N-NW 8,3 km/h (2 Bft)
07.07.2009 00:00 16,2 C 86 % 1008,8 hPa 0,0 l/m N-NW 8,4 km/h (2 Bft)
07.07.2009 01:00 15,4 C 90 % 1008,9 hPa 0,0 l/m N 2,4 km/h (1 Bft)
07.07.2009 02:00 13,8 C 95 % 1009,0 hPa 0,0 l/m N 1,1 km/h (0 Bft)
07.07.2009 03:00 13,5 C 96 % 1009,0 hPa 0,0 l/m N 0,9 km/h (0 Bft)
07.07.2009 04:00 13,6 C 97 % 1009,1 hPa 0,0 l/m N 0,1 km/h (0 Bft)
07.07.2009 05:00 13,1 C 96 % 1008,7 hPa 0,0 l/m N 0,0 km/h (0 Bft)
07.07.2009 06:00 12,9 C 97 % 1008,5 hPa 0,0 l/m O-SO 0,7 km/h (0 Bft)
07.07.2009 07:00 14,5 C 95 % 1008,4 hPa 0,0 l/m SW 2,0 km/h (1 Bft)
07.07.2009 08:00 16,2 C 91 % 1008,4 hPa 0,0 l/m SW 5,7 km/h (1 Bft)
07.07.2009 09:00 18,1 C 82 % 1007,9 hPa 0,0 l/m S-SW 13,1 km/h (3 Bft)
07.07.2009 10:00 17,3 C 79 % 1008,4 hPa 0,0 l/m W-NW 21,7 km/h (4 Bft)
07.07.2009 11:00 16,4 C 79 % 1008,9 hPa 0,0 l/m W-NW 26,3 km/h (4 Bft)
07.07.2009 12:00 16,0 C 75 % 1009,0 hPa 0,0 l/m W 15,7 km/h (3 Bft)
07.07.2009 13:00 17,6 C 70 % 1008,6 hPa 0,0 l/m W 18,0 km/h (3 Bft)
07.07.2009 14:00 18,4 C 71 % 1008,1 hPa 0,0 l/m W-SW 22,9 km/h (4 Bft)
07.07.2009 15:00 18,3 C 72 % 1007,4 hPa 0,0 l/m W-SW 22,5 km/h (4 Bft)
07.07.2009 16:00 19,1 C 70 % 1007,0 hPa 0,0 l/m W-SW 24,5 km/h (4 Bft)
07.07.2009 17:00 18,7 C 68 % 1006,9 hPa 0,0 l/m W-SW 23,7 km/h (4 Bft)
07.07.2009 18:00 17,9 C 68 % 1006,9 hPa 0,0 l/m W 16,2 km/h (3 Bft)
07.07.2009 19:00 16,5 C 77 % 1007,5 hPa 0,6 l/m W-SW 14,6 km/h (3 Bft)
07.07.2009 20:00 14,8 C 88 % 1008,3 hPa 0,0 l/m SW 16,6 km/h (3 Bft)
07.07.2009 21:00 14,1 C 93 % 1008,9 hPa 0,0 l/m SW 16,5 km/h (3 Bft)
07.07.2009 22:00 13,4 C 94 % 1009,8 hPa 0,0 l/m SW 16,2 km/h (3 Bft)
07.07.2009 23:00 13,0 C 93 % 1009,9 hPa 0,0 l/m SW 16,5 km/h (3 Bft)
08.07.2009 00:00 12,9 C 90 % 1009,9 hPa 0,0 l/m W-SW 20,1 km/h (4 Bft)
08.07.2009 01:00 12,7 C 90 % 1009,9 hPa 0,0 l/m W-SW 18,6 km/h (3 Bft)
08.07.2009 02:00 12,3 C 92 % 1009,9 hPa 0,0 l/m SW 8,7 km/h (2 Bft)
08.07.2009 03:00 12,2 C 89 % 1009,8 hPa 0,4 l/m SW 11,3 km/h (2 Bft)
08.07.2009 04:00 11,8 C 92 % 1009,8 hPa 0,0 l/m SW 12,5 km/h (3 Bft)
08.07.2009 05:00 11,4 C 93 % 1010,0 hPa 0,0 l/m W-SW 14,8 km/h (3 Bft)
08.07.2009 06:00 11,9 C 86 % 1010,1 hPa 0,0 l/m W-SW 24,4 km/h (4 Bft)
08.07.2009 07:00 12,1 C 87 % 1010,4 hPa 0,0 l/m W-SW 20,0 km/h (4 Bft)
08.07.2009 08:00 13,0 C 85 % 1010,8 hPa 0,0 l/m SW 33,4 km/h (5 Bft)
08.07.2009 09:00 13,6 C 82 % 1011,1 hPa 0,0 l/m W-SW 33,0 km/h (5 Bft)
08.07.2009 10:00 14,1 C 80 % 1011,5 hPa 0,0 l/m W 30,0 km/h (5 Bft)
08.07.2009 11:00 15,3 C 75 % 1011,6 hPa 0,0 l/m W-SW 31,6 km/h (5 Bft)
08.07.2009 12:00 17,3 C 67 % 1011,7 hPa 0,0 l/m W-SW 35,5 km/h (5 Bft)
08.07.2009 13:00 17,4 C 62 % 1011,5 hPa 0,0 l/m W-SW 33,3 km/h (5 Bft)
08.07.2009 14:00 16,6 C 65 % 1011,6 hPa 0,0 l/m W 25,6 km/h (4 Bft)
08.07.2009 15:00 17,0 C 62 % 1011,8 hPa 0,0 l/m W-SW 30,2 km/h (5 Bft)
08.07.2009 16:00 18,2 C 57 % 1011,6 hPa 0,0 l/m W 34,1 km/h (5 Bft)
08.07.2009 17:00 17,5 C 60 % 1012,1 hPa 0,0 l/m W 29,2 km/h (5 Bft)
08.07.2009 18:00 15,5 C 74 % 1012,4 hPa 0,2 l/m W 18,8 km/h (3 Bft)
08.07.2009 19:00 15,0 C 76 % 1013,0 hPa 0,0 l/m W 21,6 km/h (4 Bft)
08.07.2009 20:00 14,8 C 77 % 1013,7 hPa 0,0 l/m W-SW 13,0 km/h (3 Bft)
08.07.2009 21:00 14,2 C 78 % 1014,3 hPa 0,0 l/m W-NW 15,3 km/h (3 Bft)
08.07.2009 22:00 13,1 C 85 % 1014,6 hPa 0,0 l/m W 7,8 km/h (2 Bft)
08.07.2009 23:00 13,0 C 86 % 1014,8 hPa 0,0 l/m SW 11,6 km/h (2 Bft)
09.07.2009 00:00 12,6 C 88 % 1014,7 hPa 0,0 l/m SW 13,2 km/h (3 Bft)
09.07.2009 01:00 12,7 C 87 % 1014,8 hPa 0,0 l/m SW 18,4 km/h (3 Bft)
09.07.2009 02:00 12,2 C 89 % 1014,6 hPa 0,4 l/m SW 18,6 km/h (3 Bft)
09.07.2009 03:00 11,8 C 92 % 1014,6 hPa 0,2 l/m W-SW 15,8 km/h (3 Bft)
09.07.2009 04:00 11,7 C 94 % 1014,5 hPa 0,8 l/m W-SW 13,3 km/h (3 Bft)
09.07.2009 05:00 11,5 C 95 % 1014,5 hPa 0,0 l/m W-SW 14,6 km/h (3 Bft)
09.07.2009 06:00 11,6 C 95 % 1014,6 hPa 0,2 l/m SW 13,0 km/h (3 Bft)
09.07.2009 07:00 11,7 C 95 % 1014,8 hPa 0,0 l/m W-SW 15,0 km/h (3 Bft)
09.07.2009 08:00 12,1 C 96 % 1014,9 hPa 0,0 l/m SW 13,7 km/h (3 Bft)
09.07.2009 09:00 13,5 C 91 % 1015,1 hPa 0,0 l/m SW 16,8 km/h (3 Bft)
09.07.2009 10:00 14,0 C 90 % 1015,2 hPa 0,0 l/m SW 18,6 km/h (3 Bft)
09.07.2009 11:00 16,1 C 81 % 1015,1 hPa 0,0 l/m SW 21,7 km/h (4 Bft)
09.07.2009 12:00 17,2 C 72 % 1014,5 hPa 0,0 l/m SW 24,0 km/h (4 Bft)
09.07.2009 13:00 14,5 C 81 % 1014,0 hPa 1,2 l/m W 20,3 km/h (4 Bft)
09.07.2009 14:00 18,1 C 73 % 1013,4 hPa 0,0 l/m W-SW 22,9 km/h (4 Bft)
09.07.2009 15:00 15,7 C 78 % 1013,7 hPa 3,2 l/m W 23,5 km/h (4 Bft)
09.07.2009 16:00 13,4 C 91 % 1014,1 hPa 3,0 l/m W-SW 10,9 km/h (2 Bft)
09.07.2009 17:00 15,0 C 88 % 1013,9 hPa 0,2 l/m W-SW 14,1 km/h (3 Bft)
09.07.2009 18:00 14,3 C 89 % 1013,7 hPa 1,4 l/m W-SW 9,2 km/h (2 Bft)
09.07.2009 19:00 15,3 C 89 % 1013,6 hPa 0,0 l/m W-SW 5,9 km/h (2 Bft)
09.07.2009 20:00 13,7 C 87 % 1013,8 hPa 0,2 l/m W-SW 22,2 km/h (4 Bft)
09.07.2009 21:00 12,6 C 89 % 1014,1 hPa 0,0 l/m SW 13,0 km/h (3 Bft)
09.07.2009 22:00 12,6 C 91 % 1014,8 hPa 0,0 l/m W 8,4 km/h (2 Bft)
09.07.2009 23:00 12,2 C 95 % 1015,0 hPa 0,0 l/m S 5,5 km/h (1 Bft)
10.07.2009 00:00 12,2 C 94 % 1014,9 hPa 0,4 l/m W 12,1 km/h (2 Bft)
10.07.2009 01:00 11,9 C 91 % 1014,8 hPa 0,0 l/m W-SW 9,7 km/h (2 Bft)
10.07.2009 02:00 11,9 C 93 % 1014,9 hPa 0,0 l/m W-SW 12,4 km/h (3 Bft)
10.07.2009 03:00 11,9 C 94 % 1014,7 hPa 0,0 l/m W-SW 10,3 km/h (2 Bft)
10.07.2009 04:00 11,5 C 95 % 1014,9 hPa 0,0 l/m W 9,9 km/h (2 Bft)
10.07.2009 05:00 11,4 C 95 % 1014,9 hPa 0,0 l/m W 10,3 km/h (2 Bft)
10.07.2009 06:00 11,5 C 95 % 1015,1 hPa 0,0 l/m W 10,2 km/h (2 Bft)
10.07.2009 07:00 11,8 C 93 % 1015,3 hPa 0,0 l/m W 10,1 km/h (2 Bft)
10.07.2009 08:00 13,0 C 88 % 1015,5 hPa 0,0 l/m W-SW 12,0 km/h (2 Bft)
10.07.2009 09:00 14,7 C 77 % 1015,3 hPa 0,0 l/m W-SW 15,3 km/h (3 Bft)
10.07.2009 10:00 15,5 C 69 % 1015,2 hPa 0,0 l/m W 18,0 km/h (3 Bft)
10.07.2009 11:00 16,3 C 61 % 1015,2 hPa 0,0 l/m W-SW 23,3 km/h (4 Bft)
10.07.2009 12:00 16,0 C 63 % 1015,2 hPa 0,0 l/m W 18,6 km/h (3 Bft)
10.07.2009 13:00 16,5 C 62 % 1015,0 hPa 0,0 l/m SW 20,9 km/h (4 Bft)
10.07.2009 14:00 15,7 C 63 % 1015,0 hPa 0,0 l/m W-NW 22,9 km/h (4 Bft)
10.07.2009 15:00 17,5 C 58 % 1014,7 hPa 0,0 l/m W-SW 20,6 km/h (4 Bft)
10.07.2009 16:00 17,2 C 59 % 1014,8 hPa 0,0 l/m W-NW 17,8 km/h (3 Bft)
10.07.2009 17:00 17,2 C 56 % 1014,7 hPa 0,0 l/m W-NW 17,0 km/h (3 Bft)
10.07.2009 18:00 17,3 C 57 % 1014,8 hPa 0,0 l/m W 14,4 km/h (3 Bft)
10.07.2009 19:00 16,4 C 61 % 1015,1 hPa 0,0 l/m W 13,7 km/h (3 Bft)
10.07.2009 20:00 15,6 C 66 % 1015,4 hPa 0,0 l/m W-NW 7,6 km/h (2 Bft)
10.07.2009 21:00 14,0 C 79 % 1016,0 hPa 0,0 l/m NW 2,3 km/h (1 Bft)
10.07.2009 22:00 13,4 C 80 % 1016,6 hPa 0,0 l/m NW 2,9 km/h (1 Bft)
10.07.2009 23:00 12,0 C 85 % 1016,8 hPa 0,0 l/m N 1,7 km/h (1 Bft)
11.07.2009 00:00 10,8 C 87 % 1016,8 hPa 0,0 l/m W-NW 2,1 km/h (1 Bft)
11.07.2009 01:00 10,4 C 89 % 1017,0 hPa 0,0 l/m N 0,9 km/h (0 Bft)
11.07.2009 02:00 10,5 C 90 % 1017,0 hPa 0,0 l/m N 0,8 km/h (0 Bft)
11.07.2009 03:00 10,0 C 91 % 1016,9 hPa 0,0 l/m N 0,0 km/h (0 Bft)
11.07.2009 04:00 9,7 C 93 % 1016,7 hPa 0,0 l/m N 0,1 km/h (0 Bft)
11.07.2009 05:00 9,2 C 95 % 1016,6 hPa 0,0 l/m N 0,0 km/h (0 Bft)
11.07.2009 06:00 9,9 C 95 % 1016,6 hPa 0,0 l/m N 0,0 km/h (0 Bft)
11.07.2009 07:00 11,0 C 92 % 1016,6 hPa 0,0 l/m N 0,4 km/h (0 Bft)
11.07.2009 08:00 12,3 C 88 % 1016,5 hPa 0,0 l/m W-SW 3,1 km/h (1 Bft)
11.07.2009 09:00 14,7 C 73 % 1016,6 hPa 0,0 l/m W 13,8 km/h (3 Bft)
11.07.2009 10:00 15,6 C 64 % 1016,7 hPa 0,0 l/m W-SW 17,4 km/h (3 Bft)
11.07.2009 11:00 16,7 C 57 % 1016,8 hPa 0,0 l/m W-NW 17,7 km/h (3 Bft)
11.07.2009 12:00 16,8 C 57 % 1016,9 hPa 0,0 l/m W-NW 17,6 km/h (3 Bft)
11.07.2009 13:00 17,8 C 52 % 1016,7 hPa 0,0 l/m W-NW 20,8 km/h (4 Bft)
11.07.2009 14:00 17,9 C 54 % 1016,5 hPa 0,0 l/m W-SW 18,5 km/h (3 Bft)
11.07.2009 15:00 18,3 C 55 % 1016,6 hPa 0,0 l/m SW 23,3 km/h (4 Bft)
11.07.2009 16:00 18,4 C 57 % 1016,4 hPa 0,0 l/m W-SW 21,0 km/h (4 Bft)
11.07.2009 17:00 19,0 C 53 % 1016,0 hPa 0,0 l/m W 19,0 km/h (3 Bft)
11.07.2009 18:00 18,2 C 54 % 1015,9 hPa 0,0 l/m W 15,8 km/h (3 Bft)
11.07.2009 19:00 17,9 C 56 % 1015,9 hPa 0,0 l/m W-SW 12,4 km/h (3 Bft)
11.07.2009 20:00 16,4 C 62 % 1016,0 hPa 0,0 l/m W-SW 6,3 km/h (2 Bft)
11.07.2009 21:00 14,1 C 74 % 1015,9 hPa 0,0 l/m W-SW 4,1 km/h (1 Bft)
11.07.2009 22:00 12,4 C 82 % 1016,5 hPa 0,0 l/m N 1,2 km/h (1 Bft)
11.07.2009 23:00 11,4 C 87 % 1016,7 hPa 0,0 l/m N 0,7 km/h (0 Bft)
12.07.2009 00:00 10,5 C 91 % 1016,4 hPa 0,0 l/m N 0,0 km/h (0 Bft)
12.07.2009 01:00 9,8 C 93 % 1015,6 hPa 0,0 l/m N 0,1 km/h (0 Bft)
12.07.2009 02:00 9,0 C 94 % 1015,2 hPa 0,0 l/m N 0,1 km/h (0 Bft)
12.07.2009 03:00 9,0 C 95 % 1014,8 hPa 0,0 l/m N 0,4 km/h (0 Bft)
12.07.2009 04:00 8,8 C 95 % 1014,8 hPa 0,0 l/m N 0,1 km/h (0 Bft)
12.07.2009 05:00 8,8 C 95 % 1014,7 hPa 0,0 l/m N 0,1 km/h (0 Bft)
12.07.2009 06:00 9,5 C 96 % 1014,7 hPa 0,0 l/m N 0,0 km/h (0 Bft)
12.07.2009 07:00 10,5 C 95 % 1014,5 hPa 0,0 l/m SW 1,7 km/h (1 Bft)
12.07.2009 08:00 12,2 C 92 % 1014,5 hPa 0,0 l/m SW 3,5 km/h (1 Bft)
12.07.2009 09:00 14,4 C 87 % 1014,5 hPa 0,0 l/m SW 7,1 km/h (2 Bft)
12.07.2009 10:00 14,9 C 87 % 1014,7 hPa 0,0 l/m S-SW 6,9 km/h (2 Bft)
12.07.2009 11:00 14,8 C 91 % 1014,8 hPa 0,4 l/m S 7,5 km/h (2 Bft)
12.07.2009 12:00 15,6 C 89 % 1014,3 hPa 0,0 l/m S-SW 9,8 km/h (2 Bft)
12.07.2009 13:00 16,2 C 84 % 1014,0 hPa 0,0 l/m S-SW 8,2 km/h (2 Bft)
12.07.2009 14:00 17,9 C 78 % 1013,2 hPa 0,0 l/m SW 14,2 km/h (3 Bft)
12.07.2009 15:00 19,1 C 73 % 1012,9 hPa 0,0 l/m S-SW 19,6 km/h (3 Bft)
12.07.2009 16:00 19,9 C 71 % 1012,7 hPa 0,0 l/m SW 18,1 km/h (3 Bft)
12.07.2009 17:00 19,4 C 75 % 1012,9 hPa 0,6 l/m W-SW 14,9 km/h (3 Bft)
12.07.2009 18:00 17,8 C 89 % 1012,7 hPa 0,2 l/m SW 7,9 km/h (2 Bft)
12.07.2009 19:00 17,9 C 88 % 1012,7 hPa 0,0 l/m SW 7,5 km/h (2 Bft)
12.07.2009 20:00 17,4 C 91 % 1012,9 hPa 0,0 l/m SW 6,1 km/h (2 Bft)
12.07.2009 21:00 16,9 C 89 % 1012,8 hPa 0,0 l/m SW 6,6 km/h (2 Bft)
12.07.2009 22:00 17,0 C 87 % 1013,4 hPa 0,0 l/m W-SW 10,6 km/h (2 Bft)
12.07.2009 23:00 16,6 C 91 % 1013,4 hPa 0,4 l/m W-SW 12,0 km/h (2 Bft)
Min-Datum _ 12.07.09 11.07.09 07.07.09 - - 06.07.09
_ Min-Zeit 04:50 13:30 18:05 - - 04:35
Minimum _ 8,7 C 49 % 1006,7 hPa - - 0,0 km/h (0 Bft)
Max-Datum _ 06.07.09 07.07.09 11.07.09 06.07.09 - 08.07.09
_ Max-Zeit 13:00 06:25 01:45 13:20 - 16:55
Maximum _ 22,3 C 98 % 1017,1 hPa 13,6 l/m - 49,9 km/h
W (6 Bft)
Durchschnitt _ 14,9 C 82 % 1012,6 hPa #29,4 l/m W-SW 12,8 km/h (3 Bft)